Terminal Aerodrome Forecast
Issued by NWS

Home | Current Version | Previous Version | Graphics & Text | Print | Product List | Glossary On
Versions: 1 2 3 4 5 6 7 8 9 10 11 12 13 14 15 16 17
948
FTUS43 KOAX 230526
TAFCDR
TAF
KCDR 230526Z 2306/2406 24005KT P6SM BKN150
     FM231500 28011KT P6SM FEW250
     FM232300 25009KT P6SM SCT250
     FM240300 22009KT P6SM SCT250=

USA.gov is the U.S. government's official web portal to all federal, state and local government web resources and services.